sept
04

MX FIM – GP D’EUROPE : INFOS ET RÉSULTATS

MX1 – Pre-Qualifying Practice – Classification
Pos Nr Rider Nat. Fed. Bike Bestlaptime in lap Diff. First Diff. Prev. Tot. Laps Speed

1 183 Frossard, Steven FRA FFM Yamaha 1:49.566 8 0:00.000 0:00.000 9 50.928
2 377 Pourcel, Christophe FRA FFM Kawasaki 1:50.018 7 0:00.452 0:00.452 10 50.719
3 20 Aranda, Gregory FRA FFM Kawasaki 1:50.084 8 0:00.518 0:00.066 10 50.689
4 121 Boog, Xavier FRA FFM Kawasaki 1:50.480 6 0:00.914 0:00.396 8 50.507

5 24 Simpson, Shaun GBR ACU Honda 1:50.649 10 0:01.083 0:00.169 10 50.43
6 222 Cairoli, Antonio ITA FMI KTM 1:50.961 8 0:01.395 0:00.312 9 50.288
7 22 Strijbos, Kevin BEL FMB Suzuki 1:50.974 9 0:01.408 0:00.013 11 50.282
8 777 Bobryshev, Evgeny RUS MFR Honda 1:51.426 7 0:01.860 0:00.452 9 50.078
9 2 Nagl, Maximilian GER DMSB KTM 1:51.641 5 0:02.075 0:00.215 7 49.982
10 7 Barragan, Jonathan ESP RFME Kawasaki 1:52.294 8 0:02.728 0:00.653 10 49.691
11 39 Guarneri, Davide ITA FMI Kawasaki 1:52.313 11 0:02.747 0:00.019 12 49.683
12 999 Goncalves, Rui POR FMP Honda 1:52.430 7 0:02.864 0:00.117 10 49.631
13 287 Schiffer, Marcus GER DMSB Suzuki 1:52.495 7 0:02.929 0:00.065 11 49.602
14 902 Cooper, Cody NZL MNZ Suzuki 1:52.971 9 0:03.405 0:00.476 11 49.393
15 6 Leok, Tanel EST EMF TM 1:53.286 7 0:03.720 0:00.315 10 49.256
16 10 Boissiere, Anthony FRA FFM Yamaha 1:54.242 9 0:04.676 0:00.956 9 48.844
17 115 Campano Jimenez, Carlos ESP RFME Yamaha 1:54.338 9 0:04.772 0:00.096 11 48.803
18 13 Monni, Manuel ITA FMI Honda 1:55.355 7 0:05.789 0:01.017 11 48.372
19 76 Hansen, Nicolai DEN DMU Suzuki 1:55.636 8 0:06.070 0:00.281 9 48.255
20 49 Schmidinger, Günter AUT OeAMTC Honda 1:55.887 7 0:06.321 0:00.251 11 48.15
21 213 Pyrhönen, Antti FIN SML Honda 1:56.419 10 0:06.853 0:00.532 11 47.93
22 141 Church, Tom GBR ACU KTM 1:56.838 6 0:07.272 0:00.419 8 47.758..

MANCHE QUALIFICATIVE MX1

Holeshot de Shaun Simpson.. Christophe Pourcel passe Simpson à 12 min de la fin.. Cairoli passe Simpson à 4 min.. Max Nagl obligé d’abandonner à 2 tours de la fin de manche en raison d’un problème à son pneu arrière..

MX1 – Qualifying Race – Classification
Pos Nr Rider Nat. Fed. Bike Time laps Diff. First Diff. Prev. Bestlaptime in lap Speed
1 377 Pourcel, Christophe FRA FFM Kawasaki 24:33.890 12 0:00.000 0:00.000 1:52.363 4 49.6
6
2 222 Cairoli, Antonio ITA FMI KTM 24:38.878 12 0:04.988 0:04.988 1:52.822 5 49.458
3 777 Bobryshev, Evgeny RUS MFR Honda 24:46.597 12 0:12.707 0:07.719 1:52.677 5 49.522
4 24 Simpson, Shaun GBR ACU Honda 24:48.582 12 0:14.692 0:01.985 1:53.374 2 49.218
5 183 Frossard, Steven FRA FFM Yamaha 24:55.301 12 0:21.411 0:06.719 1:54.049 6 48.926
6 999 Goncalves, Rui POR FMP Honda 24:59.275 12 0:25.385 0:03.974 1:54.142 12 48.886
7 121 Boog, Xavier FRA FFM Kawasaki 24:59.676 12 0:25.786 0:00.401 1:54.439 2 48.76
8 22 Strijbos, Kevin BEL FMB Suzuki 25:03.120 12 0:29.230 0:03.444 1:53.299 5 49.25
9 20 Aranda, Gregory FRA FFM Kawasaki 25:10.502 12 0:36.612 0:07.382 1:55.196 7 48.439
10 39 Guarneri, Davide ITA FMI Kawasaki 25:11.621 12 0:37.731 0:01.119 1:55.622 9 48.261
11 7 Barragan, Jonathan ESP RFME Kawasaki 25:21.287 12 0:47.397 0:09.666 1:55.080 10 48.488
12 115 Campano Jimenez, Carlos ESP RFME Yamaha 25:27.272 12 0:53.382 0:05.985 1:55.426 6 48.343
13 287 Schiffer, Marcus GER DMSB Suzuki 25:31.483 12 0:57.593 0:04.211 1:56.372 4 47.95
14 10 Boissiere, Anthony FRA FFM Yamaha 25:35.869 12 1:01.979 0:04.386 1:56.515 4 47.891
15 6 Leok, Tanel EST EMF TM 25:37.174 12 1:03.284 0:01.305 1:56.442 7 47.921
16 13 Monni, Manuel ITA FMI Honda 25:39.079 12 1:05.189 0:01.905 1:56.265 12 47.994
17 141 Church, Tom GBR ACU KTM 25:52.172 12 1:18.282 0:13.093 1:57.813 6 47.363
18 215 Lynggaard, Kasper DEN DMU Kawasaki 25:55.670 12 1:21.780 0:03.498 1:58.319 4 47.161
19 76 Hansen, Nicolai DEN DMU Suzuki 25:57.925 12 1:24.035 0:02.255 1:58.559 4 47.065
20 213 Pyrhönen, Antti FIN SML Honda 26:03.267 12 1:29.377 0:05.342 1:57.681 4 47.416
21 49 Schmidinger, Günter AUT OeAMTC Honda 26:06.207 12 1:32.317 0:02.940 1:59.061 4 46.867
22 902 Cooper, Cody NZL MNZ Suzuki 26:11.921 12 1:38.031 0:05.714 1:58.193 4 47.211
23 61 Brakke, Herjan NED KNMV Yamaha 26:13.278 12 1:39.388 0:01.357 1:59.561 7 46.671
24 52 Walkner, Matthias AUT OeAMTC KTM 26:14.324 12 1:40.434 0:01.046 1:58.631 11 47.037
25 69 Schaller, Maik GER DMSB KTM 26:23.104 12 1:49.214 0:08.780 1:59.738 8 46.602
26 82 Snow, Alex GBR ACU Kawasaki 26:34.731 12 2:00.841 0:11.627 2:00.771 4 46.203
27 127 Eriksson, Toni FIN SML Kawasaki 24:39.432 11 1 lap 1 lap 2:00.850 3 46.173
28 73 Parshin, Dimitry RUS MFR Honda 24:50.010 11 1 lap 0:10.578 2:01.504 7 45.924
29 26 Delince, Jeremy BEL FMB KTM 24:54.340 11 1 lap 0:04.330 2:00.614 3 46.263
30 41 Smith, Alfie GBR ACU Aprilia 25:11.386 11 1 lap 0:17.046 2:02.754 7 45.457
31 74 Steinbergs, Ivo LAT LAMSF Kawasaki 25:50.282 11 1 lap 0:38.896 2:02.682 2 45.483
32 146 Voss, Jens GER DMSB Kawasaki 26:31.867 11 1 lap 0:41.585 2:02.243 3 45.647
33 83 Bihlmaier, Skatty GER DMSB Yamaha 24:47.182 10 2 laps 1 lap 2:06.884 2 43.977
34 2 Nagl, Maximilian GER DMSB KTM 19:11.109 9 3 laps 1 lap 1:54.648 3 48.671

DIMANCHE

MX1 – Warm-up – Classification
Pos Nr Rider Nat. Fed. Bike Bestlaptime in lap Diff. First Diff. Prev. Tot. Laps Speed
1 20 Aranda, Gregory FRA FFM Kawasaki 1:51.430 5 0:00.000 0:00.000 5 50.076

2 777 Bobryshev, Evgeny RUS MFR Honda 1:51.458 8 0:00.028 0:00.028 8 50.064
3 6 Leok, Tanel EST EMF TM 1:51.554 4 0:00.124 0:00.096 6 50.021
4 7 Barragan, Jonathan ESP RFME Kawasaki 1:51.623 8 0:00.193 0:00.069 8 49.99
5 24 Simpson, Shaun GBR ACU Honda 1:52.008 3 0:00.578 0:00.385 8 49.818
6 121 Boog, Xavier FRA FFM Kawasaki 1:52.086 8 0:00.656 0:00.078 8 49.783
7 13 Monni, Manuel ITA FMI Honda 1:53.014 7 0:01.584 0:00.928 8 49.374
8 22 Strijbos, Kevin BEL FMB Suzuki 1:53.146 6 0:01.716 0:00.132 9 49.317
9 10 Boissiere, Anthony FRA FFM Yamaha 1:53.427 6 0:01.997 0:00.281 7 49.195
10 2 Nagl, Maximilian GER DMSB KTM 1:54.088 6 0:02.658 0:00.661 6 48.91
11 999 Goncalves, Rui POR FMP Honda 1:54.182 5 0:02.752 0:00.094 7 48.869
12 115 Campano Jimenez, Carlos ESP RFME Yamaha 1:54.216 6 0:02.786 0:00.034 7 48.855
13 213 Pyrhönen, Antti FIN SML Honda 1:54.540 6 0:03.110 0:00.324 7 48.717
14 141 Church, Tom GBR ACU KTM 1:54.561 5 0:03.131 0:00.021 6 48.708
15 26 Delince, Jeremy BEL FMB KTM 1:54.611 6 0:03.181 0:00.050 8 48.686
16 287 Schiffer, Marcus GER DMSB Suzuki 1:56.195 5 0:04.765 0:01.584 8 48.023
17 902 Cooper, Cody NZL MNZ Suzuki 1:56.276 7 0:04.846 0:00.081 8 47.989
18 52 Walkner, Matthias AUT OeAMTC KTM 1:56.502 8 0:05.072 0:00.226 8 47.896
19 215 Lynggaard, Kasper DEN DMU Kawasaki 1:57.558 6 0:06.128 0:01.056 7 47.466
20 76 Hansen, Nicolai DEN DMU Suzuki 1:57.941 6 0:06.511 0:00.383 7 47.312
21 74 Steinbergs, Ivo LAT LAMSF Kawasaki 1:58.231 6 0:06.801 0:00.290 7 47.196
22 73 Parshin, Dimitry RUS MFR Honda 1:58.351 7 0:06.921 0:00.120 8 47.148
23 49 Schmidinger, Günter AUT OeAMTC Honda 1:58.630 7 0:07.200 0:00.279 7 47.037
24 82 Snow, Alex GBR ACU Kawasaki 1:58.639 7 0:07.209 0:00.009 7 47.033
25 61 Brakke, Herjan NED KNMV Yamaha 1:58.674 6 0:07.244 0:00.035 8 47.02
26 146 Voss, Jens GER DMSB Kawasaki 1:59.279 4 0:07.849 0:00.605 5 46.781
27 127 Eriksson, Toni FIN SML Kawasaki 2:01.408 5 0:09.978 0:02.129 8 45.961
28 69 Schaller, Maik GER DMSB KTM 2:01.692 4 0:10.262 0:00.284 6 45.853
29 183 Frossard, Steven FRA FFM Yamaha 2:01.844 5 0:10.414 0:00.152 6 45.796
30 39 Guarneri, Davide ITA FMI Kawasaki 2:02.298 2 0:10.868 0:00.454 6 45.626
31 41 Smith, Alfie GBR ACU Aprilia 2:02.671 5 0:11.241 0:00.373 5 45.488
32 222 Cairoli, Antonio ITA FMI KTM 2:07.265 3 0:15.835 0:04.594 4 43.846
33 83 Bihlmaier, Skatty GER DMSB Yamaha 2:16.818 3 0:25.388 0:09.553 5 40.784
34 377 Pourcel, Christophe FRA FFM Kawasaki 2:28.620 1 0:37.190 0:11.802 3 37.545

1 ÈRE MANCHE MX1

Holeshot de Xavier Boog.. Christophe Pourcel rate son départ.. Jonathan Barragan va aller à la chute (il va perdre l’avant..).. Grosse chute de Christophe Pourcel à 32 min de la fin pendant sa remontée qui rentre dans les stands, il abandonnera.. Bobryshev va prendre la tête de course à 20 min de la fin de manche.. Steven Frossard chute lourdement au même endroit que Pourcel à 17 mn de la fin., il devra abandonner.. Xavier Boog reviendra fort dans la roue arrière du russe dans le denier tour tentant tout pour le passer jusque dans le dernier virage..! Antonio Cairoli est Champion du Monde pour la 5 Ème FOIS..!

MX1 – Grand Prix Race 1 – Classification
Pos Nr Rider Nat. Fed. Bike Time laps Diff. First Diff. Prev. Bestlaptime in lap Speed

1 777 Bobryshev, Evgeny RUS MFR Honda 40:06.778 20 0:00.000 0:00.000 1:52.170 6 49.746
2 121 Boog, Xavier FRA FFM Kawasaki 40:07.132 20 0:00.354 0:00.354 1:53.678 4 49.086
3 222 Cairoli, Antonio ITA FMI KTM 40:15.949 20 0:09.171 0:08.817 1:52.207 18 49.73
4 2 Nagl, Maximilian GER DMSB KTM 40:18.963 20 0:12.185 0:03.014 1:53.846 18 49.014
5 22 Strijbos, Kevin BEL FMB Suzuki 40:23.296 20 0:16.518 0:04.333 1:54.321 6 48.81
6 999 Goncalves, Rui POR FMP Honda 40:40.587 20 0:33.809 0:17.291 1:54.565 6 48.706
7 39 Guarneri, Davide ITA FMI Kawasaki 40:47.165 20 0:40.387 0:06.578 1:54.918 15 48.556
8 20 Aranda, Gregory FRA FFM Kawasaki 40:48.747 20 0:41.969 0:01.582 1:54.653 14 48.669
9 6 Leok, Tanel EST EMF TM 40:52.221 20 0:45.443 0:03.474 1:54.082 19 48.912
10 10 Boissiere, Anthony FRA FFM Yamaha 40:54.300 20 0:47.522 0:02.079 1:53.644 19 49.101
11 24 Simpson, Shaun GBR ACU Honda 41:11.562 20 1:04.784 0:17.262 1:55.708 10 48.225
12 7 Barragan, Jonathan ESP RFME Kawasaki 41:25.541 20 1:18.763 0:13.979 1:55.121 5 48.471
13 287 Schiffer, Marcus GER DMSB Suzuki 41:42.914 20 1:36.136 0:17.373 1:57.265 16 47.585
14 13 Monni, Manuel ITA FMI Honda 41:52.987 20 1:46.209 0:10.073 1:57.568 11 47.462
15 115 Campano Jimenez, Carlos ESP RFME Yamaha 42:17.818 20 2:11.040 0:24.831 1:57.092 12 47.655
16 52 Walkner, Matthias AUT OeAMTC KTM 40:13.805 19 1 lap 1 lap 1:57.598 14 47.45
17 213 Pyrhönen, Antti FIN SML Honda 40:20.481 19 1 lap 0:06.676 1:58.114 5 47.242
18 215 Lynggaard, Kasper DEN DMU Kawasaki 40:21.864 19 1 lap 0:01.383 1:58.931 5 46.918
19 49 Schmidinger, Günter AUT OeAMTC Honda 40:22.599 19 1 lap 0:00.735 1:57.297 14 47.572
20 141 Church, Tom GBR ACU KTM 40:37.732 19 1 lap 0:15.133 1:59.367 6 46.747
21 82 Snow, Alex GBR ACU Kawasaki 41:09.815 19 1 lap 0:32.083 2:00.955 5 46.133
22 76 Hansen, Nicolai DEN DMU Suzuki 41:27.540 19 1 lap 0:17.725 2:00.625 7 46.259
23 127 Eriksson, Toni FIN SML Kawasaki 41:47.473 19 1 lap 0:19.933 2:02.548 5 45.533
24 73 Parshin, Dimitry RUS MFR Honda 41:54.494 19 1 lap 0:07.021 2:02.176 16 45.672
25 26 Delince, Jeremy BEL FMB KTM 41:56.266 19 1 lap 0:01.772 2:00.759 4 46.208
26 902 Cooper, Cody NZL MNZ Suzuki 41:58.659 19 1 lap 0:02.393 1:57.782 4 47.376
27 69 Schaller, Maik GER DMSB KTM 42:27.744 19 1 lap 0:29.085 2:01.262 10 46.016
28 41 Smith, Alfie GBR ACU Aprilia 31:41.634 14 6 laps 5 laps 2:01.980 5 45.745
29 183 Frossard, Steven FRA FFM Yamaha 15:10.627 7 13 laps 7 laps 1:53.930 7 48.977
30 146 Voss, Jens GER DMSB Kawasaki 16:45.658 7 13 laps 1:35.031 2:03.377 5 45.227
31 61 Brakke, Herjan NED KNMV Yamaha 17:04.009 7 13 laps 0:18.351 2:00.579 5 46.277
32 74 Steinbergs, Ivo LAT LAMSF Kawasaki 15:44.787 6 14 laps 1 lap 2:01.308 5 45.999
33 83 Bihlmaier, Skatty GER DMSB Yamaha 9:14.260 2 18 laps 4 laps 2:17.245 1 40.657
34 377 Pourcel, Christophe FRA FFM Kawasaki 4:37.920 1 19 laps 1 lap 2:44.268 1 33.969

2 ÈME MANCHE MX1 :

Holeshot de Christophe Pourcel.. Xavier Boog second.. Steven Frossard n’a pas pris le départ de la seconde manche.. Chute de Guarneri avec Nagl à 27m.. Abandon de Barragan à 17 mn de la fin sur problème mécanique.. Abandon de Tanel Leok à 15 mn.. Bobryshev commet une erreur à 14 mn en sortant du circuit et embarque au passage du filet vert qui entoure le terrain dans sa roue arrière.. Goncalves cale dans une ornière à 6 min.. Grosse chute de Max Nagl à 5 min.. Anthony Boissière va entamer une remontée..

MX1 – Grand Prix Race 2 – Classification
Pos Nr Rider Nat. Fed. Bike Time laps Diff. First Diff. Prev. Bestlaptime in lap Speed

1 377 Pourcel, Christophe FRA FFM Kawasaki 39:34.517 20 0:00.000 0:00.000 1:51.286 3 50.141
2 222 Cairoli, Antonio ITA FMI KTM 40:18.046 20 0:43.529 0:43.529 1:51.791 6 49.915
3 10 Boissiere, Anthony FRA FFM Yamaha 40:20.841 20 0:46.324 0:02.795 1:52.929 13 49.412
4 999 Goncalves, Rui POR FMP Honda 40:26.643 20 0:52.126 0:05.802 1:53.531 4 49.15
5 22 Strijbos, Kevin BEL FMB Suzuki 40:30.387 20 0:55.870 0:03.744 1:53.185 6 49.3
6 121 Boog, Xavier FRA FFM Kawasaki 40:31.712 20 0:57.195 0:01.325 1:53.625 5 49.109
7 24 Simpson, Shaun GBR ACU Honda 40:40.437 20 1:05.920 0:08.725 1:54.523 6 48.724
8 777 Bobryshev, Evgeny RUS MFR Honda 40:44.048 20 1:09.531 0:03.611 1:52.513 3 49.594
9 20 Aranda, Gregory FRA FFM Kawasaki 40:44.885 20 1:10.368 0:00.837 1:54.293 2 48.822
10 2 Nagl, Maximilian GER DMSB KTM 40:55.297 20 1:20.780 0:10.412 1:52.613 6 49.55
11 115 Campano Jimenez, Carlos ESP RFME Yamaha 41:15.205 20 1:40.688 0:19.908 1:54.208 6 48.858
12 287 Schiffer, Marcus GER DMSB Suzuki 41:40.204 20 2:05.687 0:24.999 1:56.132 8 48.049
13 13 Monni, Manuel ITA FMI Honda 39:55.406 19 1 lap 1 lap 1:54.297 4 48.82
14 52 Walkner, Matthias AUT OeAMTC KTM 40:02.361 19 1 lap 0:06.955 1:57.741 8 47.392
15 74 Steinbergs, Ivo LAT LAMSF Kawasaki 40:24.319 19 1 lap 0:21.958 1:58.643 4 47.032
16 215 Lynggaard, Kasper DEN DMU Kawasaki 40:26.059 19 1 lap 0:01.740 1:58.461 7 47.104
17 49 Schmidinger, Günter AUT OeAMTC Honda 40:29.574 19 1 lap 0:03.515 1:58.715 6 47.003
18 82 Snow, Alex GBR ACU Kawasaki 40:33.097 19 1 lap 0:03.523 1:58.514 6 47.083
19 61 Brakke, Herjan NED KNMV Yamaha 40:34.131 19 1 lap 0:01.034 1:59.409 3 46.73
20 76 Hansen, Nicolai DEN DMU Suzuki 40:35.343 19 1 lap 0:01.212 1:59.083 8 46.858
21 902 Cooper, Cody NZL MNZ Suzuki 40:57.936 19 1 lap 0:22.593 1:58.520 4 47.081
22 141 Church, Tom GBR ACU KTM 41:12.333 19 1 lap 0:14.397 1:57.660 4 47.425
23 127 Eriksson, Toni FIN SML Kawasaki 41:24.607 19 1 lap 0:12.274 1:59.831 8 46.566
24 26 Delince, Jeremy BEL FMB KTM 39:39.348 18 2 laps 1 lap 2:00.669 2 46.242
25 41 Smith, Alfie GBR ACU Aprilia 39:42.523 18 2 laps 0:03.175 2:00.986 3 46.121
26 73 Parshin, Dimitry RUS MFR Honda 41:02.085 18 2 laps 1:19.562 2:02.633 3 45.502
27 69 Schaller, Maik GER DMSB KTM 41:42.423 18 2 laps 0:40.338 2:03.867 2 45.048
28 6 Leok, Tanel EST EMF TM 18:04.674 8 12 laps 10 laps 1:57.188 3 47.616
29 7 Barragan, Jonathan ESP RFME Kawasaki 15:35.987 7 13 laps 1 lap 1:53.395 3 49.209
30 213 Pyrhönen, Antti FIN SML Honda 16:14.986 6 14 laps 1 lap 2:00.109 4 46.458
31 83 Bihlmaier, Skatty GER DMSB Yamaha 11:18.767 4 16 laps 2 laps 2:15.378 1 41.218
32 39 Guarneri, Davide ITA FMI Kawasaki 10:28.387 3 17 laps 1 lap 1:55.145 2 48.461

MX1 – GP Classification
Pos Nr Rider Nat. Fed. Bike Race 1 Race 2 Total

1 222 Cairoli, Antonio ITA FMI KTM 20 22 42
2 777 Bobryshev, Evgeny RUS MFR Honda 25 13 38
3 121 Boog, Xavier FRA FFM Kawasaki 22 15 37
4 999 Goncalves, Rui POR FMP Honda 15 18 33
5 22 Strijbos, Kevin BEL FMB Suzuki 16 16 32
6 10 Boissiere, Anthony FRA FFM Yamaha 11 20 31
7 2 Nagl, Maximilian GER DMSB KTM 18 11 29
8 377 Pourcel, Christophe FRA FFM Kawasaki 0 25 25
9 20 Aranda, Gregory FRA FFM Kawasaki 13 12 25

10 24 Simpson, Shaun GBR ACU Honda 10 14 24
11 287 Schiffer, Marcus GER DMSB Suzuki 8 9 17
12 115 Campano Jimenez, Carlos ESP RFME Yamaha 6 10 16
13 13 Monni, Manuel ITA FMI Honda 7 8 15
14 39 Guarneri, Davide ITA FMI Kawasaki 14 0 14
15 52 Walkner, Matthias AUT OeAMTC KTM 5 7 12
16 6 Leok, Tanel EST EMF TM 12 0 12
17 7 Barragan, Jonathan ESP RFME Kawasaki 9 0 9
18 215 Lynggaard, Kasper DEN DMU Kawasaki 3 5 8
19 74 Steinbergs, Ivo LAT LAMSF Kawasaki 0 6 6
20 49 Schmidinger, Günter AUT OeAMTC Honda 2 4 6
21 213 Pyrhönen, Antti FIN SML Honda 4 0 4
22 82 Snow, Alex GBR ACU Kawasaki 0 3 3
23 61 Brakke, Herjan NED KNMV Yamaha 0 2 2
24 76 Hansen, Nicolai DEN DMU Suzuki 0 1 1
25 141 Church, Tom GBR ACU KTM 1 0 1
26 902 Cooper, Cody NZL MNZ Suzuki 0 0 0
27 127 Eriksson, Toni FIN SML Kawasaki 0 0 0
28 26 Delince, Jeremy BEL FMB KTM 0 0 0
29 41 Smith, Alfie GBR ACU Aprilia 0 0 0
30 73 Parshin, Dimitry RUS MFR Honda 0 0 0
31 69 Schaller, Maik GER DMSB KTM 0 0 0
32 83 Bihlmaier, Skatty GER DMSB Yamaha 0 0 0
33 183 Frossard, Steven FRA FFM Yamaha 0 0 0

MX1 – World Championship Classification
Pos Nr Rider Nat. Total BUL NED USA BRA FRA POR ESP SWE GER LAT BEL CZE GBR EUR ITA

1 222 Cairoli, A. ITA 596 14-11 25-22 22-10 25-22 22-20 22-22 22-25 16-22 22-22 25-25 25-25 25-18 20-25 20-22 - -
2 183 Frossard, S. FRA 472 25-22 22-16 11-0 20-16 25-22 20-14 25-12 25-25 20-6 22-22 18-15 16-9 22-22 0-0 - -
3 25 Desalle, C. BEL 461 22-25 16-15 25-25 18-18 10-25 25-25 16-20 13-14 16-20 13-13 22-18 22-25 - - - - - -
4 2 Nagl, M. GER 439 20-15 20-25 20-22 16-15 14-12 13-0 18-15 14-11 18-14 18-11 16-22 14-15 16-16 18-11 - -
5 777 Bobryshev, E. RUS 425 9-18 11-14 15-20 13-10 15-16 18-18 13-14 22-18 25-25 20-20 15-20 18-0 - - 25-13 - -
6 999 Goncalves, Rui POR 404 13-16 15-18 9-18 11-8 7-18 14-20 14-11 12-13 14-18 14-18 20-8 20-20 15-7 15-18 - -
7 121 Boog, Xavier FRA 309 10-13 4-7 7-11 12-13 18-14 16-12 11-13 20-10 8-4 12-0 11-9 13-14 10-0 22-15 - -
8 19 Philippaerts, D. ITA 308 18-7 18-20 16-12 22-25 20-3 0-0 20-18 6-20 12-13 16-16 14-12 - - - - - - - -
9 7 Barragan, J. ESP 288 15-20 7-11 12-13 4-12 6-15 8-13 12-16 0-12 13-15 0-10 12-7 10-11 7-18 9-0 - -
10 9 de Dycker, Ken BEL 268 0-4 14-13 0-1 15-11 16-13 15-15 10-10 18-15 15-16 15-12 9-13 6-12 - - - - - -
11 6 Leok, Tanel EST 259 0-12 12-12 6-6 2-9 11-11 11-11 8-22 7-0 6-0 9-14 13-16 9-22 18-0 12-0 - -
12 22 Strijbos, K. BEL 257 12-14 5-3 18-16 10-14 12-10 10-10 4-5 9-9 0-0 4-0 5-6 15-13 8-13 16-16 - -
13 11 Ramon, Steve BEL 229 11-9 13-9 0-14 14-20 9-4 6-16 15-9 15-16 11-12 11-15 - - - - - - - - - -
14 24 Simpson, Shaun GBR 210 8-5 1-4 5-15 8-3 8-9 9-9 5-0 0-5 10-9 6-6 10-14 11-10 5-11 10-14 - -
15 10 Boissiere, A. FRA 208 6-8 6-8 14-9 9-0 5-8 0-8 7-8 10-6 0-7 8-8 8-3 0-8 11-12 11-20 - -
16 39 Guarneri, D. ITA 176 16-10 9-10 8-5 - - 2-5 12-0 9-0 0-8 9-0 10-9 0-0 12-5 13-10 14-0 - -
17 20 Aranda, G. FRA 109 - - - - 4-7 7-5 0-7 0-0 - - 11-0 5-8 7-0 0-0 5-0 9-9 13-12 - -
18 115 Campano Jimenez, C. ESP 99 5-6 0-0 3-2 0-0 - - 4-7 3-6 5-3 0-1 0-7 2-0 4-4 6-15 6-10 - -
19 377 Pourcel, C. FRA 94 - - - - - - - - - - - - - - - - 0-0 - - - - 8-16 25-20 0-25 - -..

MX2 – Pre-Qualifying Practice – Classification
Pos Nr Rider Nat. Fed. Bike Bestlaptime in lap Diff. First Diff. Prev. Tot. Laps Speed

1 84 Herlings, Jeffrey NED KNMV KTM 1:51.991 8 0:00.000 0:00.000 9 49.825
2 94 Roczen, Ken GER DMSB KTM 1:52.460 9 0:00.469 0:00.469 10 49.618
3 7 Tonus, Arnaud SUI FMS Yamaha 1:52.468 8 0:00.477 0:00.008 10 49.614
4 21 Paulin, Gautier FRA MCM Yamaha 1:52.558 2 0:00.567 0:00.090 5 49.574

5 100 Searle, Tommy GBR ACU Kawasaki 1:53.079 8 0:01.088 0:00.521 10 49.346
6 77 Lupino, Alessandro ITA FMI Husqvarna 1:53.252 7 0:01.261 0:00.173 10 49.271
7 89 van Horebeek, Jeremy BEL FMB KTM 1:53.508 8 0:01.517 0:00.256 8 49.16
8 131 Aubin, Nicolas FRA FFM KTM 1:53.774 8 0:01.783 0:00.266 10 49.045
9 911 Tixier, Jordi FRA FFM KTM 1:54.091 7 0:02.100 0:00.317 13 48.908
10 34 Roelants, Joel BEL FMB KTM 1:54.235 8 0:02.244 0:00.144 11 48.847
11 120 Irt, Jernej SLO AMZS Suzuki 1:54.426 5 0:02.435 0:00.191 9 48.765
12 45 Nicholls, Jake GBR ACU KTM 1:55.277 5 0:03.286 0:00.851 10 48.405
13 249 Larsen, Nikolaj DEN DMU KTM 1:55.445 9 0:03.454 0:00.168 9 48.335
14 170 Leib, Michael USA FSM Husqvarna 1:55.660 6 0:03.669 0:00.215 8 48.245
15 430 Charlier, Christophe FRA FFM Yamaha 1:55.861 2 0:03.870 0:00.201 10 48.161
16 99 Anstie, Max GBR AMA Kawasaki 1:56.000 5 0:04.009 0:00.139 10 48.103
17 152 Petrov, Petar BUL BMF Yamaha 1:57.245 10 0:05.254 0:01.245 11 47.593
18 128 Monticelli, Ivo ITA FMI Honda 1:57.487 9 0:05.496 0:00.242 10 47.495
19 68 Adam, David FRA FFM Yamaha 1:57.504 11 0:05.513 0:00.017 11 47.488
20 17 Butron Oliva, Antonio Jose ESP RFME KTM 1:57.827 11 0:05.836 0:00.323 11 47.358
21 262 Del Segato, Giacomo ITA FMI KTM 1:57.894 6 0:05.903 0:00.067 9 47.331
22 33 Lieber, Julien BEL MUL KTM 1:57.917 9 0:05.926 0:00.023 10 47.321
23 55 Kras, Mike NED KNMV Suzuki 1:57.944 8 0:05.953 0:00.027 10 47.311
24 590 Triest, Nick BEL FMB KTM 1:58.064 12 0:06.073 0:00.120 12 47.263..

MANCHE QUALIFICATIVE MX2

Holeshot de Gautier Paulin.. Chute de Max Anstie qui sort de la piste.. Chute dans une ornière de Tommy Searle à 16 min de la fin.. Herlings et Roczen vont passer Paulin un peu plus tard.. Ken Roczen passe premier à 2 tours de la fin de manche..

MX2 – Qualifying Race – Classification
Pos Nr Rider Nat. Fed. Bike Time laps Diff. First Diff. Prev. Bestlaptime in lap Speed

1 94 Roczen, Ken GER DMSB KTM 24:36.067 12 0:00.000 0:00.000 1:53.208 3 49.29
2 84 Herlings, Jeffrey NED KNMV KTM 24:39.181 12 0:03.114 0:03.114 1:52.851 2 49.446
3 21 Paulin, Gautier FRA MCM Yamaha 24:48.957 12 0:12.890 0:09.776 1:54.251 6 48.84
4 100 Searle, Tommy GBR ACU Kawasaki 24:52.638 12 0:16.571 0:03.681 1:52.799 8 49.469
5 7 Tonus, Arnaud SUI FMS Yamaha 24:53.228 12 0:17.161 0:00.590 1:54.012 8 48.942
6 77 Lupino, Alessandro ITA FMI Husqvarna 25:13.772 12 0:37.705 0:20.544 1:55.172 2 48.449
7 89 van Horebeek, Jeremy BEL FMB KTM 25:23.019 12 0:46.952 0:09.247 1:54.920 3 48.556
8 131 Aubin, Nicolas FRA FFM KTM 25:29.628 12 0:53.561 0:06.609 1:56.784 5 47.781
9 170 Leib, Michael USA FSM Husqvarna 25:38.601 12 1:02.534 0:08.973 1:56.862 3 47.749
10 430 Charlier, Christophe FRA FFM Yamaha 25:43.231 12 1:07.164 0:04.630 1:57.242 7 47.594
11 34 Roelants, Joel BEL FMB KTM 25:48.850 12 1:12.783 0:05.619 1:57.375 11 47.54
12 99 Anstie, Max GBR AMA Kawasaki 26:04.548 12 1:28.481 0:15.698 1:57.131 5 47.639
13 33 Lieber, Julien BEL MUL KTM 26:08.725 12 1:32.658 0:04.177 1:58.979 2 46.899
14 17 Butron Oliva, Antonio Jose ESP RFME KTM 26:09.611 12 1:33.544 0:00.886 1:59.130 5 46.84
15 45 Nicholls, Jake GBR ACU KTM 26:09.915 12 1:33.848 0:00.304 1:57.480 1 47.497
16 911 Tixier, Jordi FRA FFM KTM 26:11.788 12 1:35.721 0:01.873 1:58.762 9 46.985
17 76 Rauchenecker, Pascal AUT OeAMTC KTM 26:14.782 12 1:38.715 0:02.994 1:58.872 8 46.941
18 128 Monticelli, Ivo ITA FMI Honda 26:16.766 12 1:40.699 0:01.984 1:59.201 2 46.812
19 55 Kras, Mike NED KNMV Suzuki 26:17.180 12 1:41.113 0:00.414 1:59.367 10 46.747
20 152 Petrov, Petar BUL BMF Yamaha 26:33.206 12 1:57.139 0:16.026 1:59.728 7 46.606
21 112 Heibye, Even NOR NMF KTM 26:38.550 12 2:02.483 0:05.344 2:00.369 8 46.357
22 249 Larsen, Nikolaj DEN DMU KTM 26:50.739 12 2:14.672 0:12.189 1:58.948 3 46.911
23 195 Justs, Roberts LAT LAMSF Honda 24:51.633 11 1 lap 1 lap 2:02.173 3 45.673
24 262 Del Segato, Giacomo ITA FMI KTM 24:57.680 11 1 lap 0:06.047 2:02.529 3 45.54
25 519 Baudrexl, Dennis GER DMSB KTM 25:21.669 11 1 lap 0:23.989 2:01.450 2 45.945
26 114 Booker, Jordan GBR ACU KTM 25:32.207 11 1 lap 0:10.538 2:03.238 5 45.278
27 388 Söderberg, Ludvig FIN SML Kawasaki 25:32.367 11 1 lap 0:00.160 2:02.491 11 45.554
28 611 Cociu, Mihail MDA FRM Honda 25:32.714 11 1 lap 0:00.347 2:04.488 2 44.824
29 550 Mitchell, Sean ZIM ZMSF KTM 25:41.542 11 1 lap 0:08.828 2:04.446 2 44.839
30 40 Thanarat, Penjan THA FMSCT Kawasaki 25:52.525 11 1 lap 0:10.983 2:05.774 3 44.365
31 300 Golovkin, Viacheslav RUS LAMSF Kawasaki 26:41.551 11 1 lap 0:49.026 2:09.987 4 42.927
32 590 Triest, Nick BEL FMB KTM 25:11.304 10 2 laps 1 lap 2:03.075 3 45.338
33 68 Adam, David FRA FFM Yamaha 18:31.319 8 4 laps 2 laps 1:59.438 2 46.719..

DIMANCHE

MX2 – Warm-up – Classification
Pos Nr Rider Nat. Fed. Bike Bestlaptime in lap Diff. First Diff. Prev. Tot. Laps Speed

1 84 Herlings, Jeffrey NED KNMV KTM 1:51.840 6 0:00.000 0:00.000 7 49.893
2 911 Tixier, Jordi FRA FFM KTM 1:52.736 7 0:00.896 0:00.896 8 49.496
3 100 Searle, Tommy GBR ACU Kawasaki 1:53.671 4 0:01.831 0:00.935 7 49.089
4 131 Aubin, Nicolas FRA FFM KTM 1:54.030 8 0:02.190 0:00.359 8 48.934
5 77 Lupino, Alessandro ITA FMI Husqvarna 1:54.103 5 0:02.263 0:00.073 6 48.903
6 7 Tonus, Arnaud SUI FMS Yamaha 1:54.382 6 0:02.542 0:00.279 7 48.784
7 430 Charlier, Christophe FRA FFM Yamaha 1:54.879 4 0:03.039 0:00.497 6 48.573

8 34 Roelants, Joel BEL FMB KTM 1:54.947 7 0:03.107 0:00.068 8 48.544
9 170 Leib, Michael USA FSM Husqvarna 1:55.370 5 0:03.530 0:00.423 6 48.366
10 99 Anstie, Max GBR AMA Kawasaki 1:55.396 5 0:03.556 0:00.026 7 48.355
11 89 van Horebeek, Jeremy BEL FMB KTM 1:55.625 5 0:03.785 0:00.229 7 48.259
12 152 Petrov, Petar BUL BMF Yamaha 1:55.643 6 0:03.803 0:00.018 7 48.252
13 21 Paulin, Gautier FRA MCM Yamaha 1:55.684 4 0:03.844 0:00.041 7 48.235
14 45 Nicholls, Jake GBR ACU KTM 1:55.758 8 0:03.918 0:00.074 8 48.204
15 17 Butron Oliva, Antonio Jose ESP RFME KTM 1:55.941 8 0:04.101 0:00.183 8 48.128
16 112 Heibye, Even NOR NMF KTM 1:56.513 7 0:04.673 0:00.572 8 47.892
17 249 Larsen, Nikolaj DEN DMU KTM 1:56.519 6 0:04.679 0:00.006 6 47.889
18 128 Monticelli, Ivo ITA FMI Honda 1:57.059 8 0:05.219 0:00.540 8 47.668
19 33 Lieber, Julien BEL MUL KTM 1:57.265 6 0:05.425 0:00.206 7 47.585
20 94 Roczen, Ken GER DMSB KTM 1:57.664 3 0:05.824 0:00.399 8 47.423
21 68 Adam, David FRA FFM Yamaha 1:57.717 4 0:05.877 0:00.053 7 47.402..

1 ÈRE MANCHE MX2

Holeshot de Herlings, Arnaud Tonus 3 Ème.. Ken Roczen part à la faute quelques tours plus tard.. Roczen va revenir sur Paulin plus tard et entamera sa remontée.. Chute de Jeffrey Herlings dans la foulée, Roczen passe en tête.. Chute de Christophe Charlier à 12 mn de la fin de manche.. Arnaud Tonus passe second.. Charlier abandonne.. Tommy Searle va s’emparer de la 2 Ème place..

MX2 – Grand Prix Race 1 – Classification
Pos Nr Rider Nat. Fed. Bike Time laps Diff. First Diff. Prev. Bestlaptime in lap Speed

1 94 Roczen, Ken GER DMSB KTM 40:44.246 20 0:00.000 0:00.000 1:54.644 6 48.672
2 100 Searle, Tommy GBR ACU Kawasaki 40:52.652 20 0:08.406 0:08.406 1:54.422 15 48.767
3 7 Tonus, Arnaud SUI FMS Yamaha 40:57.295 20 0:13.049 0:04.643 1:56.147 15 48.043
4 21 Paulin, Gautier FRA MCM Yamaha 41:08.062 20 0:23.816 0:10.767 1:55.310 16 48.391

5 84 Herlings, Jeffrey NED KNMV KTM 41:27.164 20 0:42.918 0:19.102 1:56.166 2 48.035
6 131 Aubin, Nicolas FRA FFM KTM 41:44.618 20 1:00.372 0:17.454 1:57.401 12 47.529
7 170 Leib, Michael USA FSM Husqvarna 42:02.431 20 1:18.185 0:17.813 1:57.965 20 47.302
8 34 Roelants, Joel BEL FMB KTM 42:03.731 20 1:19.485 0:01.300 1:56.538 20 47.881
9 45 Nicholls, Jake GBR ACU KTM 42:05.844 20 1:21.598 0:02.113 1:57.754 20 47.387
10 99 Anstie, Max GBR AMA Kawasaki 42:08.787 20 1:24.541 0:02.943 1:56.627 19 47.845
11 77 Lupino, Alessandro ITA FMI Husqvarna 42:23.600 20 1:39.354 0:14.813 1:56.963 16 47.707
12 17 Butron Oliva, Antonio Jose ESP RFME KTM 42:37.869 20 1:53.623 0:14.269 1:59.723 15 46.608
13 152 Petrov, Petar BUL BMF Yamaha 40:48.227 19 1 lap 1 lap 2:00.139 9 46.446
14 911 Tixier, Jordi FRA FFM KTM 40:59.251 19 1 lap 0:11.024 1:59.734 7 46.603
15 89 van Horebeek, Jeremy BEL FMB KTM 41:20.152 19 1 lap 0:20.901 1:58.494 1 47.091
16 128 Monticelli, Ivo ITA FMI Honda 41:34.409 19 1 lap 0:14.257 2:01.728 5 45.84
17 590 Triest, Nick BEL FMB KTM 41:48.262 19 1 lap 0:13.853 2:00.078 6 46.47
18 55 Kras, Mike NED KNMV Suzuki 41:58.400 19 1 lap 0:10.138 2:02.788 16 45.444
19 33 Lieber, Julien BEL MUL KTM 41:59.669 19 1 lap 0:01.269 2:04.038 7 44.986
20 112 Heibye, Even NOR NMF KTM 42:10.608 19 1 lap 0:10.939 2:01.867 7 45.788
21 195 Justs, Roberts LAT LAMSF Honda 42:15.684 19 1 lap 0:05.076 2:04.332 17 44.88
22 388 Söderberg, Ludvig FIN SML Kawasaki 42:42.819 19 1 lap 0:27.135 2:04.431 7 44.844
23 114 Booker, Jordan GBR ACU KTM 41:03.871 18 2 laps 1 lap 2:03.832 15 45.061
24 300 Golovkin, Viacheslav RUS LAMSF Kawasaki 41:57.631 18 2 laps 0:53.760 2:08.051 7 43.576
25 40 Thanarat, Penjan THA FMSCT Kawasaki 42:15.627 18 2 laps 0:17.996 2:07.998 4 43.594
26 611 Cociu, Mihail MDA FRM Honda 42:27.216 18 2 laps 0:11.589 2:07.503 15 43.764
27 249 Larsen, Nikolaj DEN DMU KTM 34:39.867 16 4 laps 2 laps 2:00.760 7 46.207
28 76 Rauchenecker, Pascal AUT OeAMTC KTM 27:01.414 12 8 laps 4 laps 2:00.101 8 46.461
29 430 Charlier, Christophe FRA FFM Yamaha 22:23.359 10 10 laps 2 laps 2:00.605 8 46.267
30 68 Adam, David FRA FFM Yamaha 14:57.062 6 14 laps 4 laps 2:03.783 3 45.079

31 262 Del Segato, Giacomo ITA FMI KTM 12:50.984 4 16 laps 2 laps 2:06.223 3 44.207
32 519 Baudrexl, Dennis GER DMSB KTM 4:13.866 1 19 laps 3 laps 2:09.284 1 43.161

2 ÈME MANCHE MX2

Holeshot de Jeffrey Herlings.. Christophe Charlier va à nouveau aller à la faute.. Searle passe Roczen alors second pour le gain de la deuxième place à 22 mn de la fin de manche.. Chute de Gautier Paulin à 17 min de la fin.. Tommy Searle va commettre une petite faute en attaquant Herlings et Roczen va alors passer second.. Ken Roczen va aller à la chute à 8 mn de la fin de manche, Searle repasse.. Searle passe Herlings à 4 mn + 2 tours de la fin de manche.. KEN ROCZEN EST CHAMPION DU MONDE MX2 ’2011..!

MX2 – Grand Prix Race 2 – Classification
Pos Nr Rider Nat. Fed. Bike Time laps Diff. First Diff. Prev. Bestlaptime in lap Speed

1 100 Searle, Tommy GBR ACU Kawasaki 39:50.968 20 0:00.000 0:00.000 1:52.217 7 49.725
2 84 Herlings, Jeffrey NED KNMV KTM 39:57.577 20 0:06.609 0:06.609 1:52.304 7 49.687
3 94 Roczen, Ken GER DMSB KTM 40:02.805 20 0:11.837 0:05.228 1:52.618 2 49.548
4 7 Tonus, Arnaud SUI FMS Yamaha 40:05.583 20 0:14.615 0:02.778 1:52.718 6 49.504
5 99 Anstie, Max GBR AMA Kawasaki 40:12.679 20 0:21.711 0:07.096 1:54.108 4 48.901
6 21 Paulin, Gautier FRA MCM Yamaha 40:33.342 20 0:42.374 0:20.663 1:53.386 11 49.212
7 34 Roelants, Joel BEL FMB KTM 40:38.938 20 0:47.970 0:05.596 1:54.168 19 48.875
8 77 Lupino, Alessandro ITA FMI Husqvarna 41:07.023 20 1:16.055 0:28.085 1:55.256 14 48.414
9 131 Aubin, Nicolas FRA FFM KTM 41:17.220 20 1:26.252 0:10.197 1:55.618 14 48.262
10 911 Tixier, Jordi FRA FFM KTM 41:20.510 20 1:29.542 0:03.290 1:56.464 4 47.912

11 17 Butron Oliva, Antonio Jose ESP RFME KTM 41:30.798 20 1:39.830 0:10.288 1:57.141 15 47.635
12 430 Charlier, Christophe FRA FFM Yamaha 41:44.679 20 1:53.711 0:13.881 1:55.685 18 48.234
13 152 Petrov, Petar BUL BMF Yamaha 40:22.874 19 1 lap 1 lap 1:58.579 11 47.057
14 76 Rauchenecker, Pascal AUT OeAMTC KTM 40:29.587 19 1 lap 0:06.713 1:59.554 4 46.673
15 112 Heibye, Even NOR NMF KTM 40:32.393 19 1 lap 0:02.806 1:59.736 8 46.603
16 33 Lieber, Julien BEL MUL KTM 40:37.135 19 1 lap 0:04.742 1:59.527 6 46.684
17 590 Triest, Nick BEL FMB KTM 41:03.018 19 1 lap 0:25.883 2:00.499 4 46.307
18 128 Monticelli, Ivo ITA FMI Honda 41:13.991 19 1 lap 0:10.973 2:00.973 5 46.126
19 388 Söderberg, Ludvig FIN SML Kawasaki 41:33.321 19 1 lap 0:19.330 2:01.688 6 45.855
20 519 Baudrexl, Dennis GER DMSB KTM 41:36.660 19 1 lap 0:03.339 2:01.629 8 45.877
21 262 Del Segato, Giacomo ITA FMI KTM 41:37.880 19 1 lap 0:01.220 2:02.596 5 45.515
22 114 Booker, Jordan GBR ACU KTM 41:50.141 19 1 lap 0:12.261 2:02.044 7 45.721
23 611 Cociu, Mihail MDA FRM Honda 40:20.873 18 2 laps 1 lap 2:04.916 6 44.67
24 300 Golovkin, Viacheslav RUS LAMSF Kawasaki 40:49.318 18 2 laps 0:28.445 2:06.534 2 44.099
25 195 Justs, Roberts LAT LAMSF Honda 20:09.527 8 12 laps 10 laps 2:04.423 4 44.847
26 550 Mitchell, Sean ZIM ZMSF KTM 11:44.727 4 16 laps 4 laps 2:04.809 3 44.708
27 170 Leib, Michael USA FSM Husqvarna 6:15.979 2 18 laps 2 laps 2:05.274 2 44.542..

MX2 – GP Classification
Pos Nr Rider Nat. Fed. Bike Race 1 Race 2 Total

1 100 Searle, Tommy GBR ACU Kawasaki 22 25 47
2 94 Roczen, Ken GER DMSB KTM 25 20 45
3 84 Herlings, Jeffrey NED KNMV KTM 16 22 38
4 7 Tonus, Arnaud SUI FMS Yamaha 20 18 38
5 21 Paulin, Gautier FRA MCM Yamaha 18 15 33

6 99 Anstie, Max GBR AMA Kawasaki 11 16 27
7 34 Roelants, Joel BEL FMB KTM 13 14 27
8 131 Aubin, Nicolas FRA FFM KTM 15 12 27
9 77 Lupino, Alessandro ITA FMI Husqvarna 10 13 23
10 17 Butron Oliva, Antonio Jose ESP RFME KTM 9 10 19
11 911 Tixier, Jordi FRA FFM KTM 7 11 18
12 152 Petrov, Petar BUL BMF Yamaha 8 8 16
13 170 Leib, Michael USA FSM Husqvarna 14 0 14
14 45 Nicholls, Jake GBR ACU KTM 12 0 12
15 430 Charlier, Christophe FRA FFM Yamaha 0 9 9
16 590 Triest, Nick BEL FMB KTM 4 4 8
17 128 Monticelli, Ivo ITA FMI Honda 5 3 8
18 76 Rauchenecker, Pascal AUT OeAMTC KTM 0 7 7
19 112 Heibye, Even NOR NMF KTM 1 6 7
20 33 Lieber, Julien BEL MUL KTM 2 5 7
21 89 van Horebeek, Jeremy BEL FMB KTM 6 0 6
22 55 Kras, Mike NED KNMV Suzuki 3 0 3
23 388 Söderberg, Ludvig FIN SML Kawasaki 0 2 2
24 519 Baudrexl, Dennis GER DMSB KTM 0 1 1
25 262 Del Segato, Giacomo ITA FMI KTM 0 0 0
26 114 Booker, Jordan GBR ACU KTM 0 0 0
27 611 Cociu, Mihail MDA FRM Honda 0 0 0
28 300 Golovkin, Viacheslav RUS LAMSF Kawasaki 0 0 0
29 195 Justs, Roberts LAT LAMSF Honda 0 0 0
30 550 Mitchell, Sean ZIM ZMSF KTM 0 0 0
31 40 Thanarat, Penjan THA FMSCT Kawasaki 0 0 0
32 249 Larsen, Nikolaj DEN DMU KTM 0 0 0
33 68 Adam, David FRA FFM Yamaha 0 0 0

MX2 – World Championship Classification
Pos Nr Rider Nat. Total BUL NED USA BRA FRA POR ESP SWE GER LAT BEL CZE GBR EUR ITA

1 94 Roczen, Ken GER 635 25-25 22-22 25-25 25-22 25-10 25-0 25-25 25-25 25-20 25-25 22-22 25-25 25-25 25-20 - -
2 84 Herlings, J. NED 585 16-20 25-25 22-22 22-25 14-22 22-22 20-18 20-22 22-18 20-22 25-25 22-22 14-20 16-22 - -
3 100 Searle, Tommy GBR 526 22-22 20-20 16-20 18-18 18-25 0-25 22-22 0-18 20-22 22-20 15-15 15-20 22-22 22-25 - -
4 21 Paulin, G. FRA 458 20-14 16-15 15-0 20-20 22-18 16-20 18-20 22-20 18-25 13-11 14-16 0-16 18-18 18-15 - -
5 7 Tonus, Arnaud SUI 391 18-13 18-18 14-0 14-13 16-14 10-18 15-16 15-13 15-16 18-0 11-10 12-18 12-16 20-18 - -

6 99 Anstie, Max GBR 369 13-15 11-12 20-16 15-14 4-15 18-14 0-0 18-16 3-11 16-18 18-18 18-15 11-13 11-16 - -
7 338 Osborne, Z. USA 295 14-18 15-13 12-18 16-16 20-20 20-16 0-15 10-11 16-15 14-16 - - - - - - - - - -
8 151 Kullas, Harri FIN 287 11-7 14-14 18-10 10-12 11-12 11-12 11-11 5-10 8-10 12-15 12-13 8-11 8-11 - - - -
9 131 Aubin, Nicolas FRA 269 12-12 12-0 9-14 7-7 15-16 5-13 16-13 12-15 14-0 15-0 0-0 20-0 7-8 15-12 - -
10 34 Roelants, Joel BEL 253 10-9 13-16 7-12 13-10 13-11 15-9 14-14 0-0 - - - - 0-14 14-12 20-0 13-14 - -
11 430 Charlier, C. FRA 212 7-11 7-11 13-13 12-15 0-13 13-15 - - 14-14 12-0 0-0 - - 9-0 10-14 0-9 - -
12 45 Nicholls, Jake GBR 205 - - - - - - - - 10-8 8-10 7-10 13-0 13-13 9-13 13-12 16-10 13-15 12-0 - -
13 911 Tixier, Jordi FRA 189 8-3 3-6 8-11 11-11 9-0 0-1 4-8 0-8 5-3 8-8 8-8 11-8 9-12 7-11 - -
14 77 Lupino, A. ITA 147 1-10 0-3 6-7 9-4 0-7 9-6 8-9 9-5 4-9 5-10 0-3 0-0 - - 10-13 - -
15 17 Butron Oliva, A. ESP 147 4-2 8-7 - - - - 7-1 12-11 10-0 0-0 10-12 10-0 5-9 10-0 0-10 9-10 - -
16 152 Petrov, Petar BUL 140 3-0 0-10 10-3 5-0 0-3 6-4 6-0 7-7 6-0 7-9 16-0 5-9 3-5 8-8 - -
17 89 van Horebeek, J. BEL 139 15-16 - - - - - - - - - - - - 16-12 - - - - 20-20 6-13 15-0 6-0 - -
18 37 Teillet, V. FRA 125 0-0 - - - - - - - - - - - - 11-9 11-14 11-14 7-5 13-14 16-0 - - - -
19 76 Rauchenecker, P. AUT 102 5-5 4-0 3-8 8-9 6-4 0-0 0-3 0-0 2-6 0-0 6-6 7-0 4-9 0-7 - -
20 590 Triest, Nick BEL 95 0-4 0-4 - - - - 5-9 7-8 13-6 6-6 9-0 3-0 - - - - 0-7 4-4 - ..

VMX – Race 1 – Classification
Pos Nr Rider Nat. Fed. Bike Time laps Diff. First Diff. Prev. Bestlaptime in lap Speed

1 200 Mercer, Philip GBR ACU KTM 25:59.201 11 0:00.000 0:00.000 2:07.954 3 43.609
2 20 Bal, Pascal BEL FMB Yamaha 26:08.036 11 0:08.835 0:08.835 2:09.459 6 43.102
3 70 Camps, Alfredo ESP RFME Honda 26:26.386 11 0:27.185 0:18.350 2:10.046 3 42.908
4 242 Gajser, Bogomir SLO AMZS Suzuki 26:44.187 11 0:44.986 0:17.801 2:11.583 3 42.407
5 83 Costa, Roberto ITA FMI KTM 27:00.098 11 1:00.897 0:15.911 2:11.735 2 42.358
6 42 Jakobsson, Roger SWE SVEMO Yamaha 27:34.452 11 1:35.251 0:34.354 2:14.463 1 41.498
7 76 Dokoupil, Petr CZE ACCR Yamaha 27:44.544 11 1:45.343 0:10.092 2:17.013 2 40.726
8 84 Dirnhofer, Stefan GER DMSB KTM 27:51.616 11 1:52.415 0:07.072 2:14.270 2 41.558
9 16 Seegers, Joel NED KNMV Yamaha 27:59.457 11 2:00.256 0:07.841 2:18.973 8 40.152
10 80 Zanocz, Rolland HUN MAMS KTM 28:14.402 11 2:15.201 0:14.945 2:18.776 7 40.209
11 30 Bergsma, Peter NED KNMV Suzuki 26:04.890 10 1 lap 1 lap 2:19.018 2 40.139
12 81 Badstuber, Eugen GER DMSB KTM 26:11.370 10 1 lap 0:06.480 2:20.661 6 39.67
13 88 Hellman, Kim FIN SML Honda 26:11.886 10 1 lap 0:00.516 2:21.406 8 39.461
14 21 Pessina, Rodolfo ITA FMI KTM 26:46.047 10 1 lap 0:34.161 2:22.253 3 39.226
15 51 Bellon, Patrick BEL FMB Honda 26:52.830 10 1 lap 0:06.783 2:22.929 5 39.04
16 58 Polo, Marco ITA FMI Yamaha 26:56.961 10 1 lap 0:04.131 2:24.854 6 38.522
17 148 Flad, Wolfgang GER DMSB Suzuki 27:12.610 10 1 lap 0:15.649 2:26.325 4 38.134
18 10 Dijkstra, Koos NED KNMV Honda 27:25.582 10 1 lap 0:12.972 2:23.281 5 38.944
19 62 Meroli, Roberto ITA FMI KTM 27:29.798 10 1 lap 0:04.216 2:27.446 9 37.844
20 221 Caillouet, Sebastien FRA FFM Yamaha 27:50.655 10 1 lap 0:20.857 2:30.056 2 37.186
21 82 Arzani, Giorgio ITA FMI Honda 28:19.885 10 1 lap 0:29.230 2:30.788 1 37.006
22 17 Sunol, Joaquim ESP RFME KTM 26:09.444 9 2 laps 1 lap 2:34.544 1 36.106
23 401 Looman, Eddie NED KNMV Honda 26:10.057 9 2 laps 0:00.613 2:29.194 3 37.401
24 222 Medico, Jean-Pierre FRA FFM Yamaha 27:09.637 9 2 laps 0:59.580 2:39.648 1 34.952..

VMX – Race 2 – Classification
Pos Nr Rider Nat. Fed. Bike Time laps Diff. First Diff. Prev. Bestlaptime in lap Speed

1 200 Mercer, Philip GBR ACU KTM 26:12.962 11 0:00.000 0:00.000 2:07.091 3 43.906
2 20 Bal, Pascal BEL FMB Yamaha 26:18.390 11 0:05.428 0:05.428 2:06.432 2 44.134
3 70 Camps, Alfredo ESP RFME Honda 27:09.106 11 0:56.144 0:50.716 2:13.663 2 41.747
4 83 Costa, Roberto ITA FMI KTM 27:18.675 11 1:05.713 0:09.569 2:13.411 1 41.826
5 242 Gajser, Bogomir SLO AMZS Suzuki 27:22.249 11 1:09.287 0:03.574 2:15.728 8 41.112
6 76 Dokoupil, Petr CZE ACCR Yamaha 27:36.413 11 1:23.451 0:14.164 2:16.385 6 40.914
7 84 Dirnhofer, Stefan GER DMSB KTM 27:49.172 11 1:36.210 0:12.759 2:15.314 2 41.237
8 30 Bergsma, Peter NED KNMV Suzuki 28:00.947 11 1:47.985 0:11.775 2:15.981 2 41.035
9 42 Jakobsson, Roger SWE SVEMO Yamaha 28:09.268 11 1:56.306 0:08.321 2:16.785 3 40.794
10 57 Strecker, Ulli GER DMSB Yamaha 28:14.503 11 2:01.541 0:05.235 2:19.962 7 39.868
11 16 Seegers, Joel NED KNMV Yamaha 28:18.851 11 2:05.889 0:04.348 2:20.531 3 39.707
12 80 Zanocz, Rolland HUN MAMS KTM 28:30.154 11 2:17.192 0:11.303 2:20.686 1 39.663
13 81 Badstuber, Eugen GER DMSB KTM 26:14.333 10 1 lap 1 lap 2:20.008 3 39.855
14 21 Pessina, Rodolfo ITA FMI KTM 26:34.440 10 1 lap 0:20.107 2:23.545 5 38.873
15 10 Dijkstra, Koos NED KNMV Honda 26:36.141 10 1 lap 0:01.701 2:22.207 5 39.239
16 58 Polo, Marco ITA FMI Yamaha 26:45.341 10 1 lap 0:09.200 2:22.806 5 39.074
17 88 Hellman, Kim FIN SML Honda 26:59.433 10 1 lap 0:14.092 2:23.520 3 38.88
18 51 Bellon, Patrick BEL FMB Honda 27:13.916 10 1 lap 0:14.483 2:24.946 2 38.497
19 221 Caillouet, Sebastien FRA FFM Yamaha 27:16.274 10 1 lap 0:02.358 2:26.900 10 37.985
20 148 Flad, Wolfgang GER DMSB Suzuki 27:28.631 10 1 lap 0:12.357 2:28.203 8 37.651
21 401 Looman, Eddie NED KNMV Honda 27:31.956 10 1 lap 0:03.325 2:27.163 5 37.917
22 62 Meroli, Roberto ITA FMI KTM 27:43.796 10 1 lap 0:11.840 2:27.691 2 37.782
23 82 Arzani, Giorgio ITA FMI Honda 28:20.683 10 1 lap 0:36.887 2:32.355 6 36.625
24 66 Costa , Xavier ESP RFME KTM 28:33.792 10 1 lap 0:13.109 2:35.092 1 35.979
25 17 Sunol, Joaquim ESP RFME KTM 27:02.921 9 2 laps 1 lap 2:39.054 3 35.082
26 222 Medico, Jean-Pierre FRA FFM Yamaha 27:30.972 9 2 laps 0:28.051 2:43.420 3 34.145..

VMX – Overall Classification
Pos Nr Rider Nat. Fed. Bike Race 1 Race 2 Total

1 200 Mercer, Philip GBR ACU KTM 25 25 50
2 20 Bal, Pascal BEL FMB Yamaha 22 22 44
3 70 Camps, Alfredo ESP RFME Honda 20 20 40
4 83 Costa, Roberto ITA FMI KTM 16 18 34
5 242 Gajser, Bogomir SLO AMZS Suzuki 18 16 34
6 76 Dokoupil, Petr CZE ACCR Yamaha 14 15 29
7 84 Dirnhofer, Stefan GER DMSB KTM 13 14 27
8 42 Jakobsson, Roger SWE SVEMO Yamaha 15 12 27
9 30 Bergsma, Peter NED KNMV Suzuki 10 13 23
10 16 Seegers, Joel NED KNMV Yamaha 12 10 22
11 80 Zanocz, Rolland HUN MAMS KTM 11 9 20
12 81 Badstuber, Eugen GER DMSB KTM 9 8 17
13 21 Pessina, Rodolfo ITA FMI KTM 7 7 14
14 88 Hellman, Kim FIN SML Honda 8 4 12
15 57 Strecker, Ulli GER DMSB Yamaha 0 11 11
16 58 Polo, Marco ITA FMI Yamaha 5 5 10
17 10 Dijkstra, Koos NED KNMV Honda 3 6 9
18 51 Bellon, Patrick BEL FMB Honda 6 3 9
19 148 Flad, Wolfgang GER DMSB Suzuki 4 1 5
20 221 Caillouet, Sebastien FRA FFM Yamaha 1 2 3..

VMX – Championship Classification
Pos Nr Rider Nat. Total NED USA LAT BEL GBR EUR

1 20 Bal, Pascal BEL 188 20-22 - - 14-15 20-20 18-15 22-22
2 200 Mercer, Philip GBR 176 - - - - 20-20 18-18 25-25 25-25
3 70 Camps, Alfredo ESP 167 11-9 14-14 16-7 10-13 15-18 20-20
4 42 Jakobsson, R. SWE 150 8-13 11-16 10-13 14-15 11-12 15-12
5 1 Nilsson, Mats SWE 145 25-25 20-25 25-25 - - - - - -
6 65 Hendrickx, E. NED 119 0-0 - - 18-18 22-25 16-20 - -
7 88 Hellman, Kim FIN 100 7-12 5-9 8-6 12-8 10-11 8-4
8 242 Gajser, B. SLO 91 3-6 - - - - 9-12 13-14 18-16
9 178 Hofstede, K. NED 87 22-18 - - - - 25-22 - - - -
10 32 Lheriteau, C. FRA 82 18-20 - - - - - - 22-22 - -
11 30 Bergsma, Peter NED 82 4-14 - - 6-10 0-0 12-13 10-13
12 10 Dijkstra, Koos NED 66 10-15 - - - - 16-16 - - 3-6
13 28 Lewis, Phil GBR 59 5-3 8-13 7-8 8-7 - - - -
14 78 Hunt, Ryan RSA 56 - - 18-8 - - - - 14-16 - -
15 51 Bellon, P. BEL 50 - - - - - - 11-11 9-10 6-3
16 15 Dubach, Doug USA 45 - - 25-20 - - - - - - - -
17 13 Kahro, Valdur EST 45 16-16 13-0 - - - - - - - -
18 35 Vehkonen, Ismo FIN 44 - - - - 22-22 - - - - - -
19 9 King, Darryll NZL 44 - - 22-22 - - - - - - - -
20 83 Costa, Roberto ITA 34 - - - - - - - - - - 16-18
21 12 Bruggen, H. NED 33 2-4 - - - - 13-14 - - - -
22 611 Wynne, Shawn USA 30 - - 15-15 - - - - - - - -
23 103 Baltgalvis, R. LAT 29 - - - - 13-16 - - - - - -
24 76 Dokoupil, Petr CZE 29 - - - - - - - - - - 14-15
25 221 Caillouet, S. FRA 29 0-0 4-0 0-1 3-4 5-9 1-2..

A voir aussi :

Le commentaires sont fermés.